createdAt,value
2022-09-07T00:04:49.014Z,101120.59
2022-09-07T00:15:12.742Z,101109.66
2022-09-07T00:25:39.113Z,101112.75
2022-09-07T00:36:00.857Z,101120.22
2022-09-07T00:46:26.023Z,101117.78
2022-09-07T00:56:50.193Z,101095.53
2022-09-07T01:07:11.832Z,101095.00
2022-09-07T01:17:41.806Z,101078.88
2022-09-07T01:28:13.846Z,101088.31
2022-09-07T01:39:02.989Z,101093.34
2022-09-07T01:49:35.152Z,101099.75
2022-09-07T02:00:10.014Z,101074.81
2022-09-07T02:10:31.511Z,101051.44
2022-09-07T02:20:58.034Z,101035.78
2022-09-07T02:31:20.021Z,101065.50
2022-09-07T02:41:44.635Z,101187.97
2022-09-07T02:52:09.145Z,101170.59
2022-09-07T03:02:52.550Z,101158.66
2022-09-07T03:13:26.578Z,101155.63
2022-09-07T03:23:51.753Z,101113.22
2022-09-07T03:34:13.844Z,101080.38
2022-09-07T03:44:35.369Z,101054.84
2022-09-07T03:54:56.941Z,101056.81
2022-09-07T04:05:18.554Z,101085.94
2022-09-07T04:15:40.068Z,101081.88
2022-09-07T04:26:01.627Z,101065.63
2022-09-07T04:36:24.849Z,101068.63
2022-09-07T04:46:46.474Z,101070.22
2022-09-07T04:57:09.859Z,101043.16
2022-09-07T05:07:31.458Z,101070.13
2022-09-07T05:17:53.039Z,101076.13
2022-09-07T05:28:19.105Z,101059.13
2022-09-07T05:38:41.061Z,101080.19
2022-09-07T05:49:03.609Z,101068.25
2022-09-07T05:59:25.137Z,101072.09
2022-09-07T06:20:28.202Z,101047.59
2022-09-07T06:30:49.726Z,101066.63
2022-09-07T06:51:58.955Z,101083.81
2022-09-07T07:02:20.498Z,101091.59
2022-09-07T07:23:02.941Z,101091.13
2022-09-07T07:33:25.268Z,101103.41
2022-09-07T07:43:48.349Z,101087.63
2022-09-07T07:54:09.864Z,101089.28
2022-09-07T08:04:32.734Z,101092.47
2022-09-07T08:14:54.223Z,101106.69
2022-09-07T08:25:15.821Z,101116.06
2022-09-07T08:35:37.285Z,101118.00
2022-09-07T08:46:30.936Z,101121.69
2022-09-07T09:07:53.063Z,101121.59
2022-09-07T09:18:42.429Z,101126.06
2022-09-07T09:29:20.238Z,101134.25
2022-09-07T09:39:44.548Z,101126.91
2022-09-07T09:52:29.237Z,101115.13
2022-09-07T10:01:21.794Z,101108.91
2022-09-07T10:12:09.580Z,101110.22
2022-09-07T10:22:38.849Z,101099.88
2022-09-07T10:33:09.111Z,101091.06
2022-09-07T10:43:42.224Z,101081.63
2022-09-07T10:54:30.876Z,101092.75
2022-09-07T11:05:17.748Z,101100.69
2022-09-07T11:15:49.487Z,101098.41
2022-09-07T11:26:23.319Z,101097.59
2022-09-07T11:36:58.466Z,101099.41
2022-09-07T11:47:41.783Z,101088.81
2022-09-07T11:58:09.268Z,101080.16
2022-09-07T12:08:40.724Z,101076.50
2022-09-07T12:19:24.591Z,101083.47
2022-09-07T12:30:10.357Z,101058.81
2022-09-07T12:40:33.420Z,101065.75
2022-09-07T13:02:10.385Z,101051.84
2022-09-07T13:13:00.370Z,101040.63
2022-09-07T13:23:25.733Z,101051.13
2022-09-07T13:33:50.362Z,101054.41
2022-09-07T13:44:25.218Z,101064.81
2022-09-07T13:54:59.350Z,101061.81
2022-09-07T14:05:22.443Z,101056.13
2022-09-07T14:15:47.511Z,101049.31
2022-09-07T14:26:23.218Z,101057.53
2022-09-07T14:36:46.993Z,101050.94
2022-09-07T14:47:18.954Z,101042.38
2022-09-07T14:57:40.630Z,101037.13
2022-09-07T15:08:03.310Z,101033.44
2022-09-07T15:18:56.543Z,101034.13
2022-09-07T15:29:22.311Z,101042.41
2022-09-07T15:39:44.614Z,101029.16
2022-09-07T15:50:07.282Z,101040.56
2022-09-07T16:00:30.600Z,101038.63
2022-09-07T16:10:54.154Z,101031.97
2022-09-07T16:21:16.718Z,101025.44
2022-09-07T16:31:38.508Z,101018.25
2022-09-07T16:42:00.442Z,101003.94
2022-09-07T16:52:23.271Z,101002.19
2022-09-07T17:02:44.713Z,100995.97
2022-09-07T17:13:09.269Z,101013.13
2022-09-07T17:23:31.982Z,100999.06
2022-09-07T17:33:59.077Z,101003.56
2022-09-07T17:44:22.536Z,101011.94
2022-09-07T17:54:43.975Z,101002.03
2022-09-07T18:05:07.094Z,101014.63
2022-09-07T18:15:28.822Z,101016.06
2022-09-07T18:25:57.702Z,101023.31
2022-09-07T18:36:19.624Z,101039.84
2022-09-07T18:46:41.171Z,101027.22
2022-09-07T18:57:02.671Z,101031.16
2022-09-07T19:07:29.002Z,101033.53
2022-09-07T19:17:51.580Z,101025.84
2022-09-07T19:28:13.054Z,101028.91
2022-09-07T19:38:35.129Z,101037.44
2022-09-07T19:48:56.674Z,101033.00
2022-09-07T19:59:19.575Z,101023.66
2022-09-07T20:09:41.095Z,101014.06
2022-09-07T20:20:02.871Z,101019.69
2022-09-07T20:30:24.370Z,101012.59
2022-09-07T20:40:57.955Z,101009.56
2022-09-07T20:51:21.249Z,101000.50
2022-09-07T21:01:42.852Z,100995.63
2022-09-07T21:12:04.486Z,100990.91
2022-09-07T21:22:25.988Z,100988.53
2022-09-07T21:32:51.764Z,100987.22
2022-09-07T21:43:13.296Z,100977.72
2022-09-07T21:53:35.377Z,100967.59
2022-09-07T22:03:59.460Z,100957.75
2022-09-07T22:14:21.078Z,100966.88
2022-09-07T22:24:42.539Z,100964.16
2022-09-07T22:35:04.247Z,100963.13
2022-09-07T22:45:25.694Z,100967.81
2022-09-07T22:55:47.143Z,100968.41
2022-09-07T23:06:17.239Z,100971.91
2022-09-07T23:16:39.106Z,100955.56
2022-09-07T23:27:00.733Z,100935.31
2022-09-07T23:37:22.320Z,100925.38
2022-09-07T23:47:44.039Z,100902.88
2022-09-07T23:58:06.367Z,100891.19
